createdAt,value
2022-10-22T00:02:07.845Z,100663.50
2022-10-22T00:04:35.929Z,100661.06
2022-10-22T00:07:03.805Z,100660.94
2022-10-22T00:09:31.625Z,100659.91
2022-10-22T00:11:59.925Z,100655.56
2022-10-22T00:14:27.808Z,100656.34
2022-10-22T00:16:56.350Z,100654.34
2022-10-22T00:19:25.624Z,100656.94
2022-10-22T00:21:53.591Z,100663.94
2022-10-22T00:24:21.841Z,100670.59
2022-10-22T00:26:49.724Z,100660.13
2022-10-22T00:29:19.925Z,100659.09
2022-10-22T00:31:49.891Z,100655.41
2022-10-22T00:34:18.324Z,100651.13
2022-10-22T00:36:47.546Z,100643.97
2022-10-22T00:39:17.055Z,100637.72
2022-10-22T00:41:45.365Z,100632.38
2022-10-22T00:44:46.402Z,100632.81
2022-10-22T00:47:14.585Z,100629.84
2022-10-22T00:49:42.902Z,100627.34
2022-10-22T00:52:12.718Z,100625.69
2022-10-22T00:54:41.197Z,100624.72
2022-10-22T00:57:09.193Z,100628.22
2022-10-22T00:59:37.866Z,100621.47
2022-10-22T01:02:05.802Z,100620.03
2022-10-22T01:04:33.701Z,100608.78
2022-10-22T01:07:01.635Z,100616.66
2022-10-22T01:09:36.113Z,100622.84
2022-10-22T01:12:10.399Z,100611.34
2022-10-22T01:14:47.506Z,100606.97
2022-10-22T01:20:02.837Z,100607.88
2022-10-22T01:22:33.428Z,100616.63
2022-10-22T01:25:08.543Z,100608.78
2022-10-22T01:27:45.891Z,100615.66
2022-10-22T01:30:16.055Z,100613.78
2022-10-22T01:32:47.675Z,100621.78
2022-10-22T01:35:19.609Z,100616.63
2022-10-22T01:37:49.607Z,100619.19
2022-10-22T01:40:18.153Z,100628.75
2022-10-22T01:42:58.711Z,100618.59
2022-10-22T01:45:28.640Z,100631.69
2022-10-22T01:48:02.317Z,100617.81
2022-10-22T01:50:43.226Z,100614.63
2022-10-22T01:53:26.246Z,100610.22
2022-10-22T01:56:09.677Z,100603.25
2022-10-22T01:58:43.756Z,100604.06
2022-10-22T02:01:18.437Z,100599.69
2022-10-22T02:03:49.168Z,100609.22
2022-10-22T02:06:20.345Z,100607.59
2022-10-22T02:08:48.937Z,100607.53
2022-10-22T02:11:17.095Z,100612.81
2022-10-22T02:13:48.359Z,100616.28
2022-10-22T02:16:20.239Z,100602.22
2022-10-22T02:18:48.839Z,100608.38
2022-10-22T02:21:17.127Z,100617.22
2022-10-22T02:23:46.587Z,100612.00
2022-10-22T02:26:18.166Z,100618.03
2022-10-22T02:28:53.327Z,100615.47
2022-10-22T02:31:24.898Z,100616.19
2022-10-22T02:33:54.667Z,100606.66
2022-10-22T02:36:23.698Z,100615.97
2022-10-22T02:38:52.811Z,100621.16
2022-10-22T02:41:21.258Z,100622.00
2022-10-22T02:43:52.332Z,100629.16
2022-10-22T02:46:20.328Z,100633.13
2022-10-22T02:48:49.599Z,100634.75
2022-10-22T02:51:17.518Z,100628.97
2022-10-22T02:53:45.360Z,100624.16
2022-10-22T02:56:14.176Z,100632.16
2022-10-22T02:58:42.037Z,100626.88
2022-10-22T03:01:12.385Z,100618.28
2022-10-22T03:03:43.275Z,100605.22
2022-10-22T03:06:12.601Z,100606.81
2022-10-22T03:08:41.234Z,100597.31
2022-10-22T03:11:09.318Z,100604.28
2022-10-22T03:13:37.357Z,100599.88
2022-10-22T03:16:05.533Z,100604.91
2022-10-22T03:18:33.431Z,100596.25
2022-10-22T03:21:07.492Z,100598.66
2022-10-22T03:23:36.955Z,100601.34
2022-10-22T03:26:05.748Z,100605.53
2022-10-22T03:28:33.807Z,100606.44
2022-10-22T03:31:01.751Z,100608.34
2022-10-22T03:33:29.610Z,100606.28
2022-10-22T03:35:57.494Z,100614.94
2022-10-22T03:38:25.721Z,100618.91
2022-10-22T03:40:55.014Z,100609.13
2022-10-22T03:43:22.860Z,100610.22
2022-10-22T03:45:50.838Z,100610.94
2022-10-22T03:48:18.729Z,100613.47
2022-10-22T03:50:46.563Z,100612.59
2022-10-22T03:53:14.404Z,100611.59
2022-10-22T03:55:42.664Z,100609.94
2022-10-22T03:58:11.913Z,100610.50
2022-10-22T04:00:39.984Z,100608.66
2022-10-22T04:03:07.799Z,100606.81
2022-10-22T04:05:35.669Z,100613.00
2022-10-22T04:08:03.549Z,100619.78
2022-10-22T04:10:31.407Z,100622.34
2022-10-22T04:12:59.290Z,100616.50
2022-10-22T04:15:29.049Z,100617.94
2022-10-22T04:17:57.065Z,100623.00
2022-10-22T04:20:24.907Z,100611.53
2022-10-22T04:22:52.850Z,100618.69
2022-10-22T04:25:20.718Z,100626.34
2022-10-22T04:27:48.581Z,100620.84
2022-10-22T04:30:16.583Z,100619.13
2022-10-22T04:32:45.802Z,100618.28
2022-10-22T04:35:13.789Z,100623.72
2022-10-22T04:37:42.087Z,100629.66
2022-10-22T04:40:11.742Z,100634.69
2022-10-22T04:42:39.585Z,100639.31
2022-10-22T04:45:08.262Z,100638.16
2022-10-22T04:47:36.230Z,100645.16
2022-10-22T04:50:06.353Z,100632.78
2022-10-22T04:52:34.199Z,100631.41
2022-10-22T04:55:02.021Z,100631.00
2022-10-22T04:57:30.757Z,100628.38
2022-10-22T04:59:58.610Z,100632.09
2022-10-22T05:02:26.540Z,100624.44
2022-10-22T05:04:54.508Z,100625.09
2022-10-22T05:07:24.574Z,100624.97
2022-10-22T05:09:52.470Z,100622.28
2022-10-22T05:12:20.297Z,100624.97
2022-10-22T05:14:48.171Z,100623.00
2022-10-22T05:17:15.999Z,100619.75
2022-10-22T05:19:43.853Z,100618.28
2022-10-22T05:22:11.715Z,100617.94
2022-10-22T05:24:41.026Z,100617.38
2022-10-22T05:27:08.988Z,100627.16
2022-10-22T05:29:36.978Z,100625.69
2022-10-22T05:32:05.403Z,100622.41
2022-10-22T05:34:33.446Z,100623.47
2022-10-22T05:37:01.401Z,100623.66
2022-10-22T05:39:29.320Z,100626.59
2022-10-22T05:41:58.646Z,100624.88
2022-10-22T05:44:26.492Z,100624.13
2022-10-22T05:46:54.361Z,100626.16
2022-10-22T05:49:22.232Z,100628.69
2022-10-22T05:51:50.106Z,100630.63
2022-10-22T05:54:20.072Z,100629.00
2022-10-22T05:56:47.945Z,100624.78
2022-10-22T05:59:17.125Z,100622.16
2022-10-22T06:01:45.057Z,100627.47
2022-10-22T06:04:13.942Z,100628.31
2022-10-22T06:06:44.593Z,100623.16
2022-10-22T06:09:16.057Z,100617.88
2022-10-22T06:11:43.926Z,100630.06
2022-10-22T06:14:11.908Z,100636.25
2022-10-22T06:16:41.335Z,100632.78
2022-10-22T06:19:10.308Z,100645.94
2022-10-22T06:21:38.178Z,100650.28
2022-10-22T06:24:06.530Z,100656.22
2022-10-22T06:26:34.366Z,100667.38
2022-10-22T06:29:02.640Z,100662.16
2022-10-22T06:31:36.538Z,100662.97
2022-10-22T06:34:06.326Z,100662.84
2022-10-22T06:36:34.251Z,100666.25
2022-10-22T06:39:02.231Z,100658.16
2022-10-22T06:41:30.095Z,100658.19
2022-10-22T06:43:58.404Z,100658.03
2022-10-22T06:46:27.150Z,100666.66
2022-10-22T06:48:56.456Z,100665.50
2022-10-22T06:51:26.376Z,100663.66
2022-10-22T06:53:54.841Z,100665.28
2022-10-22T06:56:24.401Z,100658.00
2022-10-22T06:58:53.916Z,100654.66
2022-10-22T07:01:25.400Z,100654.16
2022-10-22T07:03:54.111Z,100659.63
2022-10-22T07:06:24.845Z,100660.00
2022-10-22T07:08:54.874Z,100660.00
2022-10-22T07:11:24.973Z,100668.72
2022-10-22T07:13:55.242Z,100663.84
2022-10-22T07:16:28.023Z,100668.03
2022-10-22T07:18:59.135Z,100672.03
2022-10-22T07:21:27.007Z,100673.88
2022-10-22T07:23:56.528Z,100672.84
2022-10-22T07:26:27.114Z,100678.13
2022-10-22T07:28:55.131Z,100682.56
2022-10-22T07:31:22.991Z,100676.13
2022-10-22T07:33:50.968Z,100687.72
2022-10-22T07:36:19.034Z,100688.03
2022-10-22T07:38:47.503Z,100689.66
2022-10-22T07:41:18.111Z,100695.50
2022-10-22T07:43:46.395Z,100697.34
2022-10-22T07:46:14.800Z,100694.91
2022-10-22T07:48:42.678Z,100704.00
2022-10-22T07:51:10.760Z,100699.78
2022-10-22T07:53:38.932Z,100705.94
2022-10-22T07:56:07.496Z,100711.81
2022-10-22T07:58:36.901Z,100718.03
2022-10-22T08:01:07.207Z,100723.91
2022-10-22T08:03:35.802Z,100738.31
2022-10-22T08:06:03.795Z,100745.41
2022-10-22T08:08:31.898Z,100751.22
2022-10-22T08:11:01.399Z,100763.41
2022-10-22T08:13:30.528Z,100769.03
2022-10-22T08:16:00.603Z,100775.78
2022-10-22T08:18:29.090Z,100785.06
2022-10-22T08:20:57.149Z,100787.97
2022-10-22T08:23:26.174Z,100811.06
2022-10-22T08:25:56.687Z,100806.94
2022-10-22T08:28:24.608Z,100821.09
2022-10-22T08:30:52.569Z,100826.44
2022-10-22T08:33:21.873Z,100826.56
2022-10-22T08:35:50.622Z,100829.41
2022-10-22T08:38:19.076Z,100837.66
2022-10-22T08:40:50.768Z,100841.38
2022-10-22T08:43:35.040Z,100850.34
2022-10-22T08:46:22.559Z,100846.47
2022-10-22T08:48:54.919Z,100856.78
2022-10-22T08:51:25.714Z,100860.75
2022-10-22T08:54:15.790Z,100859.56
2022-10-22T08:56:45.672Z,100866.63
2022-10-22T08:59:16.892Z,100871.03
2022-10-22T09:01:47.485Z,100866.75
2022-10-22T09:04:25.192Z,100859.75
2022-10-22T09:06:54.491Z,100869.78
2022-10-22T09:09:22.780Z,100865.59
2022-10-22T09:11:52.798Z,100867.94
2022-10-22T09:14:22.598Z,100870.75
2022-10-22T09:17:06.674Z,100870.94
2022-10-22T09:19:41.497Z,100876.34
2022-10-22T09:22:19.767Z,100868.09
2022-10-22T09:24:49.364Z,100876.31
2022-10-22T09:27:18.718Z,100871.69
2022-10-22T09:29:47.170Z,100872.66
2022-10-22T09:32:15.509Z,100877.00
2022-10-22T09:34:46.876Z,100879.91
2022-10-22T09:37:18.098Z,100885.53
2022-10-22T09:39:48.014Z,100881.00
2022-10-22T09:42:17.902Z,100890.31
2022-10-22T09:44:47.811Z,100892.06
2022-10-22T09:47:42.806Z,100892.81
2022-10-22T09:50:30.098Z,100896.00
2022-10-22T09:53:01.271Z,100897.63
2022-10-22T09:55:29.736Z,100890.59
2022-10-22T09:58:00.217Z,100894.06
2022-10-22T10:00:29.094Z,100898.44
2022-10-22T10:02:58.216Z,100894.69
2022-10-22T10:05:30.682Z,100896.88
2022-10-22T10:07:59.454Z,100903.13
2022-10-22T10:10:32.602Z,100900.50
2022-10-22T10:13:07.426Z,100902.97
2022-10-22T10:15:39.533Z,100912.22
2022-10-22T10:18:23.931Z,100922.16
2022-10-22T10:20:57.722Z,100911.03
2022-10-22T10:23:29.249Z,100909.06
2022-10-22T10:26:00.049Z,100910.28
2022-10-22T10:28:42.389Z,100911.97
2022-10-22T10:31:18.737Z,100905.53
2022-10-22T10:33:54.568Z,100905.09
2022-10-22T10:36:31.042Z,100901.38
2022-10-22T10:39:04.599Z,100909.44
2022-10-22T10:41:42.413Z,100905.47
2022-10-22T10:44:39.300Z,100900.63
2022-10-22T10:47:17.329Z,100902.09
2022-10-22T10:49:45.449Z,100899.03
2022-10-22T10:52:22.794Z,100911.25
2022-10-22T10:54:57.374Z,100902.75
2022-10-22T10:57:34.572Z,100908.94
2022-10-22T11:00:07.391Z,100902.00
2022-10-22T11:02:40.618Z,100902.34
2022-10-22T11:05:12.403Z,100904.97
2022-10-22T11:07:43.840Z,100907.56
2022-10-22T11:10:29.094Z,100905.44
2022-10-22T11:12:59.115Z,100906.22
2022-10-22T11:15:29.534Z,100914.09
2022-10-22T11:18:03.368Z,100905.91
2022-10-22T11:20:41.994Z,100915.81
2022-10-22T11:23:20.083Z,100902.13
2022-10-22T11:25:50.207Z,100907.63
2022-10-22T11:28:20.646Z,100907.47
2022-10-22T11:30:53.266Z,100905.28
2022-10-22T11:33:23.417Z,100910.59
2022-10-22T11:35:51.713Z,100921.22
2022-10-22T11:38:23.814Z,100919.06
2022-10-22T11:40:53.817Z,100910.53
2022-10-22T11:43:29.465Z,100911.38
2022-10-22T11:46:10.708Z,100909.47
2022-10-22T11:48:39.628Z,100916.31
2022-10-22T11:51:31.021Z,100911.81
2022-10-22T11:54:03.261Z,100910.22
2022-10-22T11:56:38.531Z,100920.91
2022-10-22T11:59:15.167Z,100919.59
2022-10-22T12:01:44.203Z,100912.59
2022-10-22T12:04:23.411Z,100923.31
2022-10-22T12:06:58.023Z,100918.41
2022-10-22T12:09:30.264Z,100934.13
2022-10-22T12:12:05.332Z,100933.25
2022-10-22T12:14:35.386Z,100935.31
2022-10-22T12:17:08.788Z,100941.88
2022-10-22T12:19:38.692Z,100938.09
2022-10-22T12:22:15.214Z,100946.66
2022-10-22T12:24:46.400Z,100937.78
2022-10-22T12:27:22.634Z,100937.53
2022-10-22T12:29:55.458Z,100932.94
2022-10-22T12:32:23.567Z,100939.66
2022-10-22T12:34:52.873Z,100943.72
2022-10-22T12:37:21.325Z,100940.75
2022-10-22T12:39:50.576Z,100944.88
2022-10-22T12:42:19.286Z,100951.44
2022-10-22T12:44:47.509Z,100940.03
2022-10-22T12:47:17.655Z,100948.09
2022-10-22T12:49:49.889Z,100961.25
2022-10-22T12:52:20.962Z,100966.44
2022-10-22T12:54:52.410Z,100962.38
2022-10-22T12:57:21.520Z,100961.00
2022-10-22T12:59:51.873Z,100949.13
2022-10-22T13:02:24.474Z,100944.31
2022-10-22T13:05:14.510Z,100947.56
2022-10-22T13:07:43.475Z,100964.97
2022-10-22T13:10:20.891Z,100964.31
2022-10-22T13:12:53.328Z,100954.34
2022-10-22T13:15:24.408Z,100957.66
2022-10-22T13:17:52.596Z,100945.06
2022-10-22T13:20:22.603Z,100944.09
2022-10-22T13:23:01.108Z,100953.31
2022-10-22T13:25:31.650Z,100963.56
2022-10-22T13:28:01.441Z,100969.31
2022-10-22T13:30:30.827Z,100978.47
2022-10-22T13:33:00.053Z,100975.38
2022-10-22T13:35:30.814Z,100973.22
2022-10-22T13:37:58.833Z,100975.09
2022-10-22T13:40:27.604Z,100980.69
2022-10-22T13:42:56.883Z,100984.31
2022-10-22T13:45:24.828Z,100980.91
2022-10-22T13:47:54.441Z,100966.66
2022-10-22T13:50:22.765Z,100962.53
2022-10-22T13:52:52.445Z,100954.50
2022-10-22T13:55:23.369Z,100960.81
2022-10-22T13:57:51.179Z,100962.53
2022-10-22T14:00:22.528Z,100954.13
2022-10-22T14:02:53.023Z,100954.97
2022-10-22T14:05:21.222Z,100957.75
2022-10-22T14:07:49.459Z,100954.75
2022-10-22T14:10:19.777Z,100958.88
2022-10-22T14:12:52.354Z,100959.59
2022-10-22T14:15:24.914Z,100965.16
2022-10-22T14:17:55.631Z,100965.97
2022-10-22T14:20:25.653Z,100964.38
2022-10-22T14:22:54.163Z,100968.56
2022-10-22T14:25:23.784Z,100981.22
2022-10-22T14:27:51.926Z,100982.75
2022-10-22T14:30:23.277Z,100979.75
2022-10-22T14:32:51.890Z,100984.94
2022-10-22T14:35:21.913Z,100978.72
2022-10-22T14:37:49.852Z,100970.88
2022-10-22T14:40:19.338Z,100967.16
2022-10-22T14:42:48.484Z,100960.50
2022-10-22T14:45:21.161Z,100949.63
2022-10-22T14:47:50.306Z,100948.16
2022-10-22T14:50:18.554Z,100932.94
2022-10-22T14:52:46.681Z,100944.75
2022-10-22T14:55:16.115Z,100935.09
2022-10-22T14:57:44.288Z,100937.31
2022-10-22T15:00:14.843Z,100936.69
2022-10-22T15:02:43.088Z,100938.09
2022-10-22T15:05:12.627Z,100931.69
2022-10-22T15:07:40.876Z,100933.78
2022-10-22T15:10:09.984Z,100934.56
2022-10-22T15:12:37.923Z,100938.69
2022-10-22T15:15:06.868Z,100933.81
2022-10-22T15:17:34.828Z,100941.19
2022-10-22T15:20:04.204Z,100947.09
2022-10-22T15:22:35.241Z,100950.47
2022-10-22T15:25:04.719Z,100950.13
2022-10-22T15:27:32.699Z,100951.69
2022-10-22T15:30:00.869Z,100948.91
2022-10-22T15:32:29.389Z,100957.22
2022-10-22T15:34:57.464Z,100957.84
2022-10-22T15:37:25.461Z,100953.59
2022-10-22T15:39:54.764Z,100956.66
2022-10-22T15:42:23.264Z,100956.78
2022-10-22T15:44:58.563Z,100961.28
2022-10-22T15:47:28.577Z,100970.31
2022-10-22T15:49:56.515Z,100968.81
2022-10-22T15:52:24.462Z,100966.53
2022-10-22T15:54:52.334Z,100967.47
2022-10-22T15:57:22.705Z,100971.38
2022-10-22T15:59:51.877Z,100971.94
2022-10-22T16:02:19.876Z,100978.13
2022-10-22T16:04:48.747Z,100979.00
2022-10-22T16:07:19.850Z,100985.47
2022-10-22T16:09:50.981Z,100992.34
2022-10-22T16:12:18.928Z,100984.69
2022-10-22T16:14:51.036Z,100989.97
2022-10-22T16:17:19.383Z,100988.28
2022-10-22T16:19:48.671Z,100988.47
2022-10-22T16:22:16.543Z,100991.75
2022-10-22T16:24:44.416Z,100992.59
2022-10-22T16:27:12.482Z,100998.69
2022-10-22T16:29:40.535Z,101002.78
2022-10-22T16:32:09.846Z,100998.34
2022-10-22T16:34:37.912Z,101009.59
2022-10-22T16:37:10.189Z,101007.81
2022-10-22T16:39:38.477Z,101009.34
2022-10-22T16:42:06.496Z,101011.44
2022-10-22T16:44:34.397Z,101011.44
2022-10-22T16:47:02.512Z,101014.63
2022-10-22T16:49:32.172Z,101015.38
2022-10-22T16:52:00.168Z,101013.72
2022-10-22T16:54:28.155Z,101013.00
2022-10-22T16:56:57.479Z,101018.91
2022-10-22T16:59:25.644Z,101014.78
2022-10-22T17:01:54.605Z,101015.81
2022-10-22T17:04:23.563Z,101018.34
2022-10-22T17:06:52.809Z,101021.63
2022-10-22T17:09:20.867Z,101026.81
2022-10-22T17:11:48.792Z,101022.75
2022-10-22T17:14:16.679Z,101021.78
2022-10-22T17:16:44.846Z,101031.56
2022-10-22T17:19:14.127Z,101032.00
2022-10-22T17:21:42.046Z,101036.91
2022-10-22T17:24:11.862Z,101045.88
2022-10-22T17:26:39.698Z,101043.22
2022-10-22T17:29:07.928Z,101037.06
2022-10-22T17:31:37.369Z,101045.53
2022-10-22T17:34:06.895Z,101046.50
2022-10-22T17:36:36.189Z,101046.63
2022-10-22T17:39:07.479Z,101046.03
2022-10-22T17:41:38.004Z,101054.69
2022-10-22T17:44:09.023Z,101053.28
2022-10-22T17:46:37.247Z,101054.69
2022-10-22T17:49:07.957Z,101056.06
2022-10-22T17:51:35.883Z,101066.28
2022-10-22T17:54:07.339Z,101061.34
2022-10-22T17:56:40.214Z,101063.34
2022-10-22T17:59:08.503Z,101058.91
2022-10-22T18:01:43.301Z,101065.19
2022-10-22T18:04:12.808Z,101066.81
2022-10-22T18:06:40.785Z,101069.59
2022-10-22T18:09:11.589Z,101067.03
2022-10-22T18:11:42.679Z,101075.78
2022-10-22T18:14:10.531Z,101072.50
2022-10-22T18:16:38.438Z,101079.56
2022-10-22T18:19:06.449Z,101080.41
2022-10-22T18:21:34.511Z,101079.41
2022-10-22T18:24:02.407Z,101077.50
2022-10-22T18:26:30.308Z,101086.69
2022-10-22T18:28:59.759Z,101084.69
2022-10-22T18:31:30.349Z,101083.97
2022-10-22T18:33:58.616Z,101079.50
2022-10-22T18:36:28.064Z,101080.91
2022-10-22T18:38:57.801Z,101077.44
2022-10-22T18:41:26.061Z,101081.66
2022-10-22T18:43:54.607Z,101076.34
2022-10-22T18:46:24.905Z,101073.78
2022-10-22T18:48:54.195Z,101072.88
2022-10-22T18:51:22.219Z,101078.06
2022-10-22T18:54:04.607Z,101071.63
2022-10-22T18:56:39.957Z,101076.97
2022-10-22T18:59:07.979Z,101073.91
2022-10-22T19:01:37.278Z,101068.75
2022-10-22T19:04:05.346Z,101073.94
2022-10-22T19:06:34.529Z,101083.88
2022-10-22T19:09:05.217Z,101087.56
2022-10-22T19:11:33.765Z,101074.19
2022-10-22T19:14:01.614Z,101070.66
2022-10-22T19:16:29.718Z,101073.16
2022-10-22T19:19:02.953Z,101085.41
2022-10-22T19:21:31.314Z,101082.06
2022-10-22T19:24:00.182Z,101079.50
2022-10-22T19:26:29.101Z,101080.94
2022-10-22T19:29:00.673Z,101088.28
2022-10-22T19:31:29.822Z,101085.31
2022-10-22T19:33:57.998Z,101081.84
2022-10-22T19:36:28.781Z,101081.84
2022-10-22T19:38:57.222Z,101094.13
2022-10-22T19:41:27.188Z,101092.38
2022-10-22T19:43:55.840Z,101096.75
2022-10-22T19:46:25.625Z,101101.28
2022-10-22T19:48:54.154Z,101106.28
2022-10-22T19:51:23.491Z,101114.84
2022-10-22T19:53:58.479Z,101114.91
2022-10-22T19:56:26.434Z,101119.28
2022-10-22T19:58:54.312Z,101121.00
2022-10-22T20:01:22.492Z,101127.84
2022-10-22T20:03:50.593Z,101128.56
2022-10-22T20:06:19.752Z,101132.25
2022-10-22T20:08:49.953Z,101136.09
2022-10-22T20:11:24.506Z,101136.09
2022-10-22T20:13:52.824Z,101136.00
2022-10-22T20:16:24.274Z,101133.25
2022-10-22T20:18:52.841Z,101137.63
2022-10-22T20:21:21.855Z,101130.38
2022-10-22T20:23:53.574Z,101144.59
2022-10-22T20:26:23.883Z,101146.06
2022-10-22T20:28:52.037Z,101142.72
2022-10-22T20:31:22.343Z,101156.34
2022-10-22T20:33:51.442Z,101146.06
2022-10-22T20:36:21.336Z,101150.41
2022-10-22T20:38:49.769Z,101148.69
2022-10-22T20:41:19.143Z,101153.03
2022-10-22T20:43:49.639Z,101164.94
2022-10-22T20:46:19.782Z,101161.94
2022-10-22T20:48:47.694Z,101172.06
2022-10-22T20:51:15.619Z,101174.50
2022-10-22T20:53:43.653Z,101182.94
2022-10-22T20:56:11.776Z,101187.31
2022-10-22T20:58:39.973Z,101179.75
2022-10-22T21:01:12.169Z,101193.03
2022-10-22T21:03:40.274Z,101185.34
2022-10-22T21:06:08.581Z,101198.63
2022-10-22T21:08:36.480Z,101192.31
2022-10-22T21:11:04.473Z,101191.50
2022-10-22T21:13:32.915Z,101194.06
2022-10-22T21:16:00.792Z,101192.56
2022-10-22T21:18:30.086Z,101201.97
2022-10-22T21:20:57.985Z,101195.25
2022-10-22T21:23:25.780Z,101210.09
2022-10-22T21:25:54.796Z,101205.72
2022-10-22T21:28:22.758Z,101199.72
2022-10-22T21:30:50.629Z,101216.19
2022-10-22T21:33:18.670Z,101213.81
2022-10-22T21:35:52.967Z,101210.22
2022-10-22T21:38:21.945Z,101211.81
2022-10-22T21:40:50.471Z,101214.56
2022-10-22T21:43:19.128Z,101223.88
2022-10-22T21:45:47.019Z,101238.59
2022-10-22T21:48:15.782Z,101247.59
2022-10-22T21:50:45.117Z,101253.31
2022-10-22T21:53:14.472Z,101263.56
2022-10-22T21:55:42.469Z,101257.56
2022-10-22T21:58:10.326Z,101255.63
2022-10-22T22:00:38.211Z,101251.66
2022-10-22T22:03:07.909Z,101255.41
2022-10-22T22:05:35.840Z,101264.72
2022-10-22T22:08:03.923Z,101259.38
2022-10-22T22:10:33.657Z,101261.91
2022-10-22T22:13:01.576Z,101255.97
2022-10-22T22:15:31.501Z,101256.03
2022-10-22T22:17:59.416Z,101266.53
2022-10-22T22:20:27.414Z,101271.75
2022-10-22T22:22:55.292Z,101270.91
2022-10-22T22:25:23.155Z,101272.13
2022-10-22T22:27:52.618Z,101269.97
2022-10-22T22:30:20.485Z,101268.25
2022-10-22T22:32:48.476Z,101256.38
2022-10-22T22:35:16.742Z,101258.25
2022-10-22T22:37:44.648Z,101263.53
2022-10-22T22:40:13.423Z,101262.97
2022-10-22T22:42:41.445Z,101265.53
2022-10-22T22:45:11.026Z,101275.75
2022-10-22T22:47:38.998Z,101279.38
2022-10-22T22:50:08.129Z,101268.09
2022-10-22T22:52:36.158Z,101260.38
2022-10-22T22:55:04.123Z,101263.22
2022-10-22T22:57:32.064Z,101260.91
2022-10-22T23:00:00.045Z,101262.81
2022-10-22T23:02:29.435Z,101262.94
2022-10-22T23:04:57.366Z,101260.13
2022-10-22T23:07:25.318Z,101256.94
2022-10-22T23:09:53.295Z,101266.22
2022-10-22T23:12:21.116Z,101261.78
2022-10-22T23:14:51.097Z,101259.16
2022-10-22T23:17:19.228Z,101258.19
2022-10-22T23:19:48.495Z,101252.06
2022-10-22T23:22:16.370Z,101251.94
2022-10-22T23:24:44.220Z,101247.56
2022-10-22T23:27:12.095Z,101234.38
2022-10-22T23:29:40.045Z,101243.91
2022-10-22T23:32:09.141Z,101241.16
2022-10-22T23:34:37.027Z,101250.50
2022-10-22T23:37:06.277Z,101241.94
2022-10-22T23:39:34.136Z,101248.00
2022-10-22T23:42:02.056Z,101245.34
2022-10-22T23:44:29.907Z,101245.09
2022-10-22T23:46:57.754Z,101243.50
2022-10-22T23:49:25.846Z,101245.47
2022-10-22T23:51:53.717Z,101240.09
2022-10-22T23:54:23.034Z,101235.00
2022-10-22T23:56:50.931Z,101234.00
2022-10-22T23:59:18.881Z,101238.31
